KDUG/DUG METAR and TAF weather

Enter ICAO airport designator
Station Type Date Time Source
KDUG METAR 2019/05/23 17:56 UTC NOAA

KDUG 231756Z AUTO 25013G23KT 10SM CLR 19/01 A3000 RMK AO2 SLP105 T01940006 10194 20117 51005


Station Type Date Time Source
KDUG Decoded METAR 2019/05/23 17:56 UTC NOAA

BISBEE DOUGLAS INTERNATIONAL AIRPORT , AZ, United States (KDUG) 31-28N 109-36W
May 23, 2019 - 01:56 PM EDT / 2019.05.23 1756 UTC
Wind: from the WSW (250 degrees) at 15 MPH (13 KT) gusting to 26 MPH (23 KT):0
Visibility: 10 mile(s):0
Sky conditions: clear
Temperature: 66.9 F (19.4 C)
Dew Point: 33.1 F (0.6 C)
Relative Humidity: 28%
Pressure (altimeter): 30 in. Hg (1015 hPa)
Pressure tendency: 0.01 inches (0.5 hPa) higher than three hours ago
ob: KDUG 231756Z AUTO 25013G23KT 10SM CLR 19/01 A3000 RMK AO2 SLP105 T01940006 10194 20117 51005
cycle: 18

Station Type Date Time Source
KDUG TAF 2019/05/23 18:36 UTC NOAA

TAF KDUG 231734Z 2318/2418 23013G22KT P6SM SCT060
FM232300 27011KT P6SM FEW060
FM240200 33008KT P6SM SKC
FM241100 01005KT P6SM SKC

Example: see airport list